createdAt,value
2018-05-08T00:00:23.916Z,5.00
2018-05-08T00:01:23.888Z,5.40
2018-05-08T00:02:23.867Z,5.30
2018-05-08T00:03:23.840Z,5.30
2018-05-08T00:04:23.817Z,5.30
2018-05-08T00:05:23.792Z,5.10
2018-05-08T00:06:23.770Z,4.90
2018-05-08T00:07:23.746Z,5.30
2018-05-08T00:08:23.728Z,5.40
2018-05-08T00:09:23.699Z,5.50
2018-05-08T00:10:23.676Z,5.40
2018-05-08T00:11:23.655Z,5.50
2018-05-08T00:12:23.633Z,5.30
2018-05-08T00:13:23.646Z,5.60
2018-05-08T00:14:23.583Z,5.60
2018-05-08T00:15:23.561Z,5.50
2018-05-08T00:16:23.536Z,5.50
2018-05-08T00:17:23.511Z,5.40
2018-05-08T00:18:23.488Z,5.60
2018-05-08T00:19:23.467Z,5.80
2018-05-08T00:20:23.447Z,5.30
2018-05-08T00:21:23.423Z,5.50
2018-05-08T00:22:23.395Z,5.80
2018-05-08T00:23:23.373Z,5.70
2018-05-08T00:24:23.349Z,6.00
2018-05-08T00:25:23.325Z,5.10
2018-05-08T00:26:23.303Z,5.90
2018-05-08T00:27:23.277Z,5.70
2018-05-08T00:28:23.263Z,5.80
2018-05-08T00:29:23.229Z,6.00
2018-05-08T00:30:23.208Z,5.40
2018-05-08T00:31:23.184Z,5.40
2018-05-08T00:32:23.162Z,6.10
2018-05-08T00:33:23.136Z,5.60
2018-05-08T00:34:23.115Z,5.60
2018-05-08T00:35:23.090Z,5.80
2018-05-08T00:36:23.065Z,5.80
2018-05-08T00:37:23.040Z,5.70
2018-05-08T00:38:23.017Z,6.30
2018-05-08T00:39:22.998Z,6.00
2018-05-08T00:40:22.969Z,5.40
2018-05-08T00:41:22.949Z,5.80
2018-05-08T00:42:22.923Z,5.70
2018-05-08T00:43:22.901Z,5.90
2018-05-08T00:44:22.877Z,5.90
2018-05-08T00:45:22.860Z,5.40
2018-05-08T00:46:22.829Z,5.60
2018-05-08T00:47:22.804Z,6.10
2018-05-08T00:48:22.780Z,5.70
2018-05-08T00:49:22.757Z,6.00
2018-05-08T00:50:22.733Z,5.60
2018-05-08T00:51:22.711Z,6.10
2018-05-08T00:52:22.690Z,5.60
2018-05-08T00:53:22.667Z,6.40
2018-05-08T00:54:22.641Z,5.70
2018-05-08T00:55:22.624Z,5.90
2018-05-08T00:56:22.597Z,6.10
2018-05-08T00:57:22.571Z,5.60
2018-05-08T00:58:22.545Z,5.70
2018-05-08T00:59:22.519Z,6.00
2018-05-08T01:00:22.495Z,6.10
2018-05-08T01:01:22.470Z,6.20
2018-05-08T01:02:22.451Z,6.40
2018-05-08T01:03:22.426Z,6.20
2018-05-08T01:04:22.402Z,6.80
2018-05-08T01:05:22.377Z,5.90
2018-05-08T01:06:22.354Z,6.10
2018-05-08T01:07:22.330Z,6.40
2018-05-08T01:08:22.305Z,6.20
2018-05-08T01:09:22.280Z,5.50
2018-05-08T01:10:22.256Z,5.90
2018-05-08T01:11:23.001Z,6.40
2018-05-08T01:12:22.214Z,6.00
2018-05-08T01:13:22.186Z,6.50
2018-05-08T01:14:22.163Z,6.20
2018-05-08T01:15:22.138Z,6.40
2018-05-08T01:16:22.113Z,6.40
2018-05-08T01:17:22.091Z,6.20
2018-05-08T01:18:22.066Z,6.30
2018-05-08T01:19:22.044Z,6.00
2018-05-08T01:20:22.020Z,6.20
2018-05-08T01:21:21.995Z,6.20
2018-05-08T01:22:21.971Z,5.80
2018-05-08T01:23:21.946Z,6.30
2018-05-08T01:24:21.925Z,6.20
2018-05-08T01:25:21.897Z,6.10
2018-05-08T01:26:21.873Z,6.30
2018-05-08T01:27:21.849Z,6.10
2018-05-08T01:28:21.838Z,6.10
2018-05-08T01:29:21.806Z,6.30
2018-05-08T01:30:21.777Z,6.70
2018-05-08T01:31:21.761Z,6.00
2018-05-08T01:32:21.732Z,6.20
2018-05-08T01:33:21.707Z,6.80
2018-05-08T01:34:21.683Z,6.20
2018-05-08T01:35:21.657Z,6.70
2018-05-08T01:36:21.633Z,6.20
2018-05-08T01:37:21.613Z,6.10
2018-05-08T01:38:21.585Z,6.30
2018-05-08T01:39:21.562Z,6.40
2018-05-08T01:40:21.539Z,6.80
2018-05-08T01:41:21.514Z,6.50
2018-05-08T01:42:21.494Z,6.30
2018-05-08T01:43:21.491Z,6.90
2018-05-08T01:44:21.443Z,6.30
2018-05-08T01:45:21.418Z,7.20
2018-05-08T01:46:21.394Z,6.30
2018-05-08T01:47:21.368Z,6.80
2018-05-08T01:48:21.345Z,6.90
2018-05-08T01:49:21.320Z,6.80
2018-05-08T01:50:21.297Z,6.50
2018-05-08T01:51:21.275Z,6.90
2018-05-08T01:52:21.250Z,6.80
2018-05-08T01:53:21.228Z,6.40
2018-05-08T01:54:21.204Z,6.50
2018-05-08T01:55:21.178Z,6.10
2018-05-08T01:56:21.153Z,6.90
2018-05-08T01:57:21.127Z,6.30
2018-05-08T01:58:21.105Z,6.60
2018-05-08T01:59:21.078Z,6.60
2018-05-08T02:00:21.054Z,6.20
2018-05-08T02:01:21.036Z,6.70
2018-05-08T02:02:21.006Z,7.00
2018-05-08T02:03:20.984Z,6.40
2018-05-08T02:04:20.960Z,6.60
2018-05-08T02:05:20.936Z,6.60
2018-05-08T02:06:20.916Z,7.00
2018-05-08T02:07:20.885Z,6.50
2018-05-08T02:08:20.862Z,6.40
2018-05-08T02:09:20.839Z,7.00
2018-05-08T02:10:20.819Z,6.50
2018-05-08T02:11:20.799Z,6.70
2018-05-08T02:12:20.767Z,7.10
2018-05-08T02:13:20.743Z,7.30
2018-05-08T02:14:20.732Z,6.70
2018-05-08T02:15:20.696Z,6.80
2018-05-08T02:16:20.667Z,6.80
2018-05-08T02:17:20.642Z,7.10
2018-05-08T02:18:20.619Z,6.60
2018-05-08T02:19:20.596Z,6.80
2018-05-08T02:20:20.615Z,7.20
2018-05-08T02:21:20.548Z,7.10
2018-05-08T02:22:20.524Z,6.90
2018-05-08T02:23:20.498Z,6.90
2018-05-08T02:24:20.481Z,6.80
2018-05-08T02:25:20.448Z,7.00
2018-05-08T02:26:20.425Z,6.70
2018-05-08T02:27:20.410Z,7.30
2018-05-08T02:28:20.379Z,7.10
2018-05-08T02:29:20.360Z,7.50
2018-05-08T02:30:20.331Z,7.20
2018-05-08T02:31:20.306Z,7.00
2018-05-08T02:32:20.281Z,7.00
2018-05-08T02:33:20.256Z,7.90
2018-05-08T02:34:20.235Z,7.20
2018-05-08T02:35:20.213Z,7.10
2018-05-08T02:36:20.182Z,6.80
2018-05-08T02:37:20.156Z,7.10
2018-05-08T02:38:20.133Z,6.60
2018-05-08T02:39:20.111Z,7.10
2018-05-08T02:40:20.091Z,7.30
2018-05-08T02:41:20.069Z,7.20
2018-05-08T02:42:20.037Z,7.50
2018-05-08T02:43:20.011Z,7.10
2018-05-08T02:44:19.987Z,7.40
2018-05-08T02:45:19.961Z,7.40
2018-05-08T02:46:19.942Z,7.30
2018-05-08T02:47:19.914Z,7.70
2018-05-08T02:48:19.891Z,7.60
2018-05-08T02:49:19.885Z,8.10
2018-05-08T02:50:19.840Z,7.60
2018-05-08T02:51:19.818Z,7.00
2018-05-08T02:52:19.793Z,7.50
2018-05-08T02:53:19.768Z,7.00
2018-05-08T02:54:19.743Z,6.90
2018-05-08T02:55:19.725Z,7.20
2018-05-08T02:56:19.698Z,6.80
2018-05-08T02:57:19.668Z,6.50
2018-05-08T02:58:19.644Z,6.70
2018-05-08T02:59:19.623Z,7.50
2018-05-08T03:00:19.601Z,7.00
2018-05-08T03:01:19.573Z,7.30
2018-05-08T03:02:19.548Z,6.70
2018-05-08T03:03:19.524Z,7.00
2018-05-08T03:04:19.501Z,7.80
2018-05-08T03:05:19.474Z,7.60
2018-05-08T03:06:19.450Z,7.00
2018-05-08T03:07:19.424Z,7.50
2018-05-08T03:08:19.400Z,7.80
2018-05-08T03:09:19.375Z,7.60
2018-05-08T03:10:19.352Z,7.60
2018-05-08T03:11:19.333Z,7.30
2018-05-08T03:12:19.307Z,7.70
2018-05-08T03:13:19.278Z,7.30
2018-05-08T03:14:19.254Z,7.70
2018-05-08T03:15:19.227Z,8.20
2018-05-08T03:16:19.204Z,7.20
2018-05-08T03:17:19.181Z,7.50
2018-05-08T03:18:19.154Z,7.50
2018-05-08T03:19:19.134Z,7.30
2018-05-08T03:20:19.108Z,6.90
2018-05-08T03:21:19.082Z,7.00
2018-05-08T03:22:19.063Z,7.70
2018-05-08T03:23:19.031Z,7.00
2018-05-08T03:24:19.008Z,7.20
2018-05-08T03:25:18.983Z,7.10
2018-05-08T03:26:18.966Z,7.50
2018-05-08T03:27:18.934Z,7.00
2018-05-08T03:28:18.920Z,7.70
2018-05-08T03:29:18.885Z,7.50
2018-05-08T03:30:18.861Z,7.50
2018-05-08T03:31:18.835Z,6.90
2018-05-08T03:32:18.810Z,7.70
2018-05-08T03:33:18.789Z,7.60
2018-05-08T03:34:18.761Z,7.50
2018-05-08T03:35:18.737Z,7.50
2018-05-08T03:36:18.715Z,7.80
2018-05-08T03:37:18.693Z,7.60
2018-05-08T03:38:18.664Z,7.70
2018-05-08T03:39:18.640Z,7.50
2018-05-08T03:40:18.616Z,7.60
2018-05-08T03:41:18.591Z,8.00
2018-05-08T03:42:18.567Z,7.50
2018-05-08T03:43:18.544Z,8.10
2018-05-08T03:44:18.601Z,8.10
2018-05-08T03:45:18.495Z,8.00
2018-05-08T03:46:18.466Z,7.80
2018-05-08T03:47:18.444Z,8.10
2018-05-08T03:48:18.420Z,7.40
2018-05-08T03:49:18.397Z,8.00
2018-05-08T03:50:18.373Z,8.20
2018-05-08T03:51:18.347Z,8.30
2018-05-08T03:52:18.322Z,7.70
2018-05-08T03:53:18.297Z,8.10
2018-05-08T03:54:18.272Z,7.80
2018-05-08T03:55:18.246Z,8.20
2018-05-08T03:56:18.222Z,8.30
2018-05-08T03:57:18.214Z,8.80
2018-05-08T03:58:18.172Z,8.10
2018-05-08T03:59:18.149Z,8.40
2018-05-08T04:00:18.137Z,8.00
2018-05-08T04:01:18.101Z,8.30
2018-05-08T04:02:18.076Z,8.10
2018-05-08T04:03:18.049Z,7.70
2018-05-08T04:04:18.025Z,8.30
2018-05-08T04:05:18.001Z,7.50
2018-05-08T04:06:17.976Z,8.50
2018-05-08T04:07:17.952Z,8.20
2018-05-08T04:08:17.969Z,7.80
2018-05-08T04:09:17.903Z,7.40
2018-05-08T04:10:17.878Z,8.30
2018-05-08T04:11:17.857Z,7.50
2018-05-08T04:12:17.833Z,7.30
2018-05-08T04:13:17.811Z,7.90
2018-05-08T04:14:17.785Z,8.50
2018-05-08T04:15:17.760Z,7.60
2018-05-08T04:16:17.742Z,9.10
2018-05-08T04:17:17.711Z,7.50
2018-05-08T04:18:17.687Z,8.10
2018-05-08T04:19:17.671Z,7.40
2018-05-08T04:20:17.642Z,8.10
2018-05-08T04:21:17.622Z,7.90
2018-05-08T04:22:17.594Z,7.70
2018-05-08T04:23:17.577Z,8.00
2018-05-08T04:24:17.554Z,9.20
2018-05-08T04:25:17.529Z,8.00
2018-05-08T04:26:17.500Z,8.00
2018-05-08T04:27:17.475Z,7.80
2018-05-08T04:28:17.452Z,8.00
2018-05-08T04:29:17.428Z,8.30
2018-05-08T04:30:17.405Z,7.80
2018-05-08T04:31:17.388Z,8.10
2018-05-08T04:32:17.361Z,7.70
2018-05-08T04:33:17.338Z,7.80
2018-05-08T04:34:17.317Z,8.10
2018-05-08T04:35:17.290Z,8.00
2018-05-08T04:36:17.270Z,7.70
2018-05-08T04:37:17.244Z,7.90
2018-05-08T04:38:17.230Z,7.80
2018-05-08T04:39:17.199Z,7.90
2018-05-08T04:40:17.176Z,8.20
2018-05-08T04:41:17.153Z,8.50
2018-05-08T04:42:17.130Z,8.40
2018-05-08T04:43:17.110Z,8.60
2018-05-08T04:44:17.089Z,8.10
2018-05-08T04:45:17.082Z,7.40
2018-05-08T04:46:17.042Z,8.00
2018-05-08T04:47:17.025Z,7.90
2018-05-08T04:48:16.997Z,8.10
2018-05-08T04:49:16.973Z,8.80
2018-05-08T04:50:16.951Z,8.30
2018-05-08T04:51:16.931Z,8.30
2018-05-08T04:52:16.909Z,9.00
2018-05-08T04:53:16.887Z,8.90
2018-05-08T04:54:16.864Z,9.20
2018-05-08T04:55:16.843Z,8.30
2018-05-08T04:56:16.821Z,9.10
2018-05-08T04:57:16.803Z,9.40
2018-05-08T04:58:16.778Z,9.40
2018-05-08T04:59:16.753Z,8.90
2018-05-08T05:00:16.732Z,9.40
2018-05-08T05:01:16.710Z,8.20
2018-05-08T05:02:16.690Z,8.40
2018-05-08T05:03:16.673Z,8.50
2018-05-08T05:04:16.647Z,8.30
2018-05-08T05:05:16.630Z,9.00
2018-05-08T05:06:16.603Z,8.40
2018-05-08T05:07:16.585Z,8.40
2018-05-08T05:08:16.560Z,7.60
2018-05-08T05:09:16.537Z,8.10
2018-05-08T05:10:16.519Z,8.30
2018-05-08T05:11:16.501Z,8.00
2018-05-08T05:12:16.474Z,8.50
2018-05-08T05:13:16.464Z,8.30
2018-05-08T05:14:16.432Z,8.90
2018-05-08T05:15:16.420Z,8.40
2018-05-08T05:16:16.395Z,8.80
2018-05-08T05:17:16.372Z,8.20
2018-05-08T05:18:16.350Z,8.30
2018-05-08T05:19:16.331Z,8.00
2018-05-08T05:20:16.306Z,8.10
2018-05-08T05:21:16.286Z,8.90
2018-05-08T05:22:16.269Z,8.50
2018-05-08T05:23:16.252Z,8.30
2018-05-08T05:24:16.229Z,8.40
2018-05-08T05:25:16.205Z,8.30
2018-05-08T05:26:16.185Z,7.90
2018-05-08T05:27:16.170Z,7.90
2018-05-08T05:28:16.143Z,8.30
2018-05-08T05:29:16.122Z,7.60
2018-05-08T05:30:16.102Z,7.80
2018-05-08T05:31:16.088Z,7.90
2018-05-08T05:32:16.071Z,8.20
2018-05-08T05:33:16.044Z,7.60
2018-05-08T05:34:16.028Z,7.40
2018-05-08T05:35:16.002Z,8.60
2018-05-08T05:36:15.983Z,7.00
2018-05-08T05:37:15.973Z,6.90
2018-05-08T05:38:15.973Z,7.10
2018-05-08T05:39:15.925Z,6.80
2018-05-08T05:40:15.914Z,6.70
2018-05-08T05:41:15.928Z,6.60
2018-05-08T05:42:15.871Z,6.70
2018-05-08T05:43:15.849Z,6.40
2018-05-08T05:44:15.833Z,6.20
2018-05-08T05:45:15.816Z,6.20
2018-05-08T05:46:15.789Z,5.90
2018-05-08T05:47:15.772Z,6.30
2018-05-08T05:48:15.752Z,6.30
2018-05-08T05:49:15.729Z,6.20
2018-05-08T05:50:15.711Z,5.70
2018-05-08T05:51:15.693Z,6.00
2018-05-08T05:52:15.675Z,6.20
2018-05-08T05:53:15.709Z,5.90
2018-05-08T05:54:15.634Z,6.00
2018-05-08T05:55:15.624Z,6.10
2018-05-08T05:56:15.597Z,5.60
2018-05-08T05:57:15.582Z,6.00
2018-05-08T05:58:15.575Z,6.20
2018-05-08T05:59:15.767Z,6.20
2018-05-08T06:00:15.524Z,6.20
2018-05-08T06:01:15.505Z,6.70
2018-05-08T06:02:15.492Z,6.10
2018-05-08T06:03:15.471Z,5.70
2018-05-08T06:04:15.450Z,6.00
2018-05-08T06:05:15.429Z,5.90
2018-05-08T06:06:15.423Z,6.50
2018-05-08T06:07:15.394Z,6.50
2018-05-08T06:08:15.376Z,6.50
2018-05-08T06:09:15.358Z,6.60
2018-05-08T06:10:15.540Z,6.10
2018-05-08T06:11:15.323Z,6.50
2018-05-08T06:12:15.304Z,6.70
2018-05-08T06:13:15.284Z,5.70
2018-05-08T06:14:15.470Z,6.70
2018-05-08T06:15:15.252Z,5.50
2018-05-08T06:16:15.433Z,6.20
2018-05-08T06:17:15.235Z,6.40
2018-05-08T06:18:15.396Z,5.70
2018-05-08T06:19:15.183Z,6.20
2018-05-08T06:20:15.199Z,6.00
2018-05-08T06:21:15.193Z,6.30
2018-05-08T06:22:15.124Z,5.90
2018-05-08T06:23:15.108Z,6.00
2018-05-08T06:24:15.090Z,5.70
2018-05-08T06:25:15.072Z,6.70
2018-05-08T06:26:15.091Z,6.10
2018-05-08T06:27:15.044Z,6.30
2018-05-08T06:28:15.021Z,6.60
2018-05-08T06:29:15.002Z,6.70
2018-05-08T06:30:14.986Z,6.30
2018-05-08T06:31:14.969Z,6.40
2018-05-08T06:32:14.953Z,6.20
2018-05-08T06:33:14.938Z,5.90
2018-05-08T06:34:14.918Z,5.90
2018-05-08T06:35:14.901Z,6.40
2018-05-08T06:36:14.883Z,6.80
2018-05-08T06:37:14.866Z,6.50
2018-05-08T06:38:14.863Z,5.90
2018-05-08T06:39:14.843Z,6.10
2018-05-08T06:40:14.819Z,6.40
2018-05-08T06:41:14.805Z,6.00
2018-05-08T06:42:14.801Z,5.90
2018-05-08T06:43:14.768Z,6.40
2018-05-08T06:44:14.810Z,6.40
2018-05-08T06:45:14.738Z,6.40
2018-05-08T06:46:14.718Z,5.50
2018-05-08T06:47:14.709Z,6.40
2018-05-08T06:48:14.889Z,6.30
2018-05-08T06:49:14.671Z,6.70
2018-05-08T06:50:14.658Z,6.10
2018-05-08T06:51:14.848Z,6.20
2018-05-08T06:52:14.831Z,6.00
2018-05-08T06:53:15.618Z,6.10
2018-05-08T06:54:14.817Z,5.90
2018-05-08T06:55:14.786Z,6.00
2018-05-08T06:56:14.766Z,6.40
2018-05-08T06:57:14.751Z,6.20
2018-05-08T06:58:14.530Z,6.10
2018-05-08T06:59:14.719Z,6.00
2018-05-08T07:00:14.511Z,5.80
2018-05-08T07:01:14.687Z,5.50
2018-05-08T07:02:14.669Z,5.90
2018-05-08T07:03:14.455Z,5.90
2018-05-08T07:04:14.436Z,5.80
2018-05-08T07:05:14.424Z,6.20
2018-05-08T07:06:14.406Z,5.90
2018-05-08T07:07:14.391Z,5.30
2018-05-08T07:08:14.377Z,5.30
2018-05-08T07:09:14.439Z,6.00
2018-05-08T07:10:14.348Z,5.80
2018-05-08T07:11:14.533Z,5.40
2018-05-08T07:12:14.316Z,5.80
2018-05-08T07:13:14.305Z,5.40
2018-05-08T07:14:14.287Z,5.40
2018-05-08T07:15:14.274Z,5.80
2018-05-08T07:16:14.389Z,5.90
2018-05-08T07:17:14.241Z,5.30
2018-05-08T07:18:14.227Z,5.40
2018-05-08T07:19:14.213Z,5.70
2018-05-08T07:20:14.205Z,5.50
2018-05-08T07:21:14.223Z,5.20
2018-05-08T07:22:14.169Z,5.50
2018-05-08T07:23:14.155Z,5.80
2018-05-08T07:24:14.143Z,5.30
2018-05-08T07:25:14.126Z,5.40
2018-05-08T07:26:14.112Z,5.50
2018-05-08T07:27:14.104Z,5.40
2018-05-08T07:28:14.084Z,5.40
2018-05-08T07:29:14.076Z,5.70
2018-05-08T07:30:14.056Z,5.30
2018-05-08T07:31:14.041Z,5.50
2018-05-08T07:32:14.030Z,5.50
2018-05-08T07:33:14.013Z,5.80
2018-05-08T07:34:13.999Z,5.00
2018-05-08T07:35:13.989Z,5.50
2018-05-08T07:36:13.972Z,5.40
2018-05-08T07:37:13.957Z,5.60
2018-05-08T07:38:14.225Z,5.20
2018-05-08T07:39:13.930Z,5.60
2018-05-08T07:40:13.941Z,6.20
2018-05-08T07:41:13.902Z,5.20
2018-05-08T07:42:14.091Z,5.10
2018-05-08T07:43:14.083Z,5.60
2018-05-08T07:44:14.071Z,5.60
2018-05-08T07:45:13.850Z,6.10
2018-05-08T07:46:13.867Z,5.70
2018-05-08T07:47:13.821Z,5.10
2018-05-08T07:48:13.808Z,5.80
2018-05-08T07:49:13.797Z,5.50
2018-05-08T07:50:13.983Z,4.90
2018-05-08T07:51:13.768Z,4.70
2018-05-08T07:52:13.958Z,5.50
2018-05-08T07:53:13.944Z,5.50
2018-05-08T07:54:13.956Z,4.90
2018-05-08T07:55:13.719Z,5.10
2018-05-08T07:56:13.910Z,5.60
2018-05-08T07:57:13.701Z,4.90
2018-05-08T07:58:13.684Z,5.00
2018-05-08T07:59:13.664Z,4.90
2018-05-08T08:00:13.651Z,5.00
2018-05-08T08:01:13.640Z,5.10
2018-05-08T08:02:13.626Z,5.10
2018-05-08T08:03:13.620Z,5.10
2018-05-08T08:04:13.600Z,4.80
2018-05-08T08:05:13.592Z,5.00
2018-05-08T08:06:13.575Z,4.70
2018-05-08T08:07:13.566Z,4.90
2018-05-08T08:08:13.593Z,5.10
2018-05-08T08:09:13.536Z,4.90
2018-05-08T08:10:13.524Z,4.70
2018-05-08T08:11:13.515Z,4.80
2018-05-08T08:12:13.704Z,4.70
2018-05-08T08:13:13.488Z,4.80
2018-05-08T08:14:13.477Z,4.80
2018-05-08T08:15:13.463Z,4.70
2018-05-08T08:16:13.451Z,5.20
2018-05-08T08:17:13.437Z,5.00
2018-05-08T08:18:13.430Z,5.40
2018-05-08T08:19:13.414Z,4.90
2018-05-08T08:20:13.403Z,5.00
2018-05-08T08:21:13.397Z,4.80
2018-05-08T08:22:13.385Z,4.60
2018-05-08T08:23:13.366Z,4.80
2018-05-08T08:24:13.361Z,5.30
2018-05-08T08:25:13.342Z,5.10
2018-05-08T08:26:13.331Z,4.80
2018-05-08T08:27:13.523Z,4.70
2018-05-08T08:28:13.308Z,4.90
2018-05-08T08:29:13.339Z,4.50
2018-05-08T08:30:13.293Z,4.70
2018-05-08T08:31:13.273Z,4.80
2018-05-08T08:32:13.261Z,5.70
2018-05-08T08:33:13.248Z,5.40
2018-05-08T08:34:13.247Z,4.80
2018-05-08T08:35:13.226Z,4.50
2018-05-08T08:36:13.222Z,4.90
2018-05-08T08:37:13.205Z,5.10
2018-05-08T08:38:13.195Z,5.20
2018-05-08T08:39:13.180Z,5.20
2018-05-08T08:40:13.173Z,5.10
2018-05-08T08:41:13.197Z,4.90
2018-05-08T08:42:13.160Z,4.60
2018-05-08T08:43:13.160Z,4.30
2018-05-08T08:44:13.172Z,4.30
2018-05-08T08:45:13.135Z,4.40
2018-05-08T08:46:13.142Z,4.30
2018-05-08T08:47:13.092Z,4.80
2018-05-08T08:48:13.151Z,4.40
2018-05-08T08:49:13.067Z,4.10
2018-05-08T08:50:13.061Z,4.60
2018-05-08T08:51:13.055Z,4.70
2018-05-08T08:52:13.042Z,4.30
2018-05-08T08:53:13.040Z,4.50
2018-05-08T08:54:13.016Z,4.10
2018-05-08T08:55:13.001Z,4.00
2018-05-08T08:56:12.996Z,4.00
2018-05-08T08:57:12.979Z,4.20
2018-05-08T08:58:12.967Z,4.60
2018-05-08T08:59:12.957Z,4.20
2018-05-08T09:00:12.948Z,4.50
2018-05-08T09:01:12.935Z,3.70
2018-05-08T09:02:12.925Z,4.70
2018-05-08T09:03:12.954Z,4.60
2018-05-08T09:04:12.920Z,4.50
2018-05-08T09:05:12.891Z,4.20
2018-05-08T09:06:12.897Z,3.90
2018-05-08T09:07:12.911Z,4.30
2018-05-08T09:08:12.874Z,4.00
2018-05-08T09:09:12.848Z,4.60
2018-05-08T09:10:12.847Z,4.10
2018-05-08T09:11:12.997Z,3.60
2018-05-08T09:12:12.839Z,4.30
2018-05-08T09:13:12.812Z,4.30
2018-05-08T09:14:12.842Z,3.90
2018-05-08T09:15:12.795Z,3.70
2018-05-08T09:16:12.777Z,3.90
2018-05-08T09:17:12.768Z,4.10
2018-05-08T09:18:12.782Z,3.70
2018-05-08T09:19:12.744Z,3.80
2018-05-08T09:20:12.734Z,4.20
2018-05-08T09:21:12.724Z,4.10
2018-05-08T09:22:12.717Z,4.30
2018-05-08T09:23:12.763Z,4.40
2018-05-08T09:24:12.691Z,4.50
2018-05-08T09:25:12.679Z,4.60
2018-05-08T09:26:12.669Z,4.90
2018-05-08T09:27:12.659Z,4.80
2018-05-08T09:28:12.652Z,4.40
2018-05-08T09:29:12.637Z,4.40
2018-05-08T09:30:12.627Z,4.60
2018-05-08T09:31:12.617Z,4.10
2018-05-08T09:32:12.611Z,4.30
2018-05-08T09:33:12.599Z,4.90
2018-05-08T09:34:12.592Z,4.20
2018-05-08T09:35:12.582Z,3.70
2018-05-08T09:36:12.565Z,4.00
2018-05-08T09:37:12.571Z,4.40
2018-05-08T09:38:12.549Z,3.60
2018-05-08T09:39:12.534Z,3.80
2018-05-08T09:40:12.532Z,3.90
2018-05-08T09:41:12.518Z,4.00
2018-05-08T09:42:12.503Z,4.30
2018-05-08T09:43:12.495Z,3.80
2018-05-08T09:44:12.484Z,3.40
2018-05-08T09:45:12.474Z,3.40
2018-05-08T09:46:12.466Z,3.90
2018-05-08T09:47:12.453Z,3.90
2018-05-08T09:48:12.445Z,4.10
2018-05-08T09:49:12.512Z,3.90
2018-05-08T09:50:12.422Z,3.50
2018-05-08T09:51:12.419Z,3.70
2018-05-08T09:52:12.402Z,3.70
2018-05-08T09:53:12.395Z,3.60
2018-05-08T09:54:12.453Z,4.00
2018-05-08T09:55:12.395Z,3.40
2018-05-08T09:56:12.365Z,3.60
2018-05-08T09:57:12.351Z,3.90
2018-05-08T09:58:12.344Z,3.50
2018-05-08T09:59:12.332Z,3.90
2018-05-08T10:00:12.322Z,3.90
2018-05-08T10:01:12.312Z,3.90
2018-05-08T10:02:12.301Z,3.50
2018-05-08T10:03:12.343Z,3.90
2018-05-08T10:04:12.286Z,3.30
2018-05-08T10:05:12.276Z,3.40
2018-05-08T10:06:12.260Z,3.80
2018-05-08T10:07:12.253Z,4.20
2018-05-08T10:08:12.241Z,4.10
2018-05-08T10:09:12.229Z,3.70
2018-05-08T10:10:12.220Z,3.80
2018-05-08T10:11:12.215Z,3.80
2018-05-08T10:12:12.202Z,3.40
2018-05-08T10:13:12.190Z,3.70
2018-05-08T10:14:12.180Z,4.30
2018-05-08T10:15:12.171Z,3.70
2018-05-08T10:16:12.161Z,3.90
2018-05-08T10:17:12.152Z,3.80
2018-05-08T10:18:12.144Z,3.90
2018-05-08T10:19:12.132Z,3.70
2018-05-08T10:20:12.143Z,3.30
2018-05-08T10:21:12.113Z,3.00
2018-05-08T10:22:12.107Z,3.30
2018-05-08T10:23:12.100Z,3.60
2018-05-08T10:24:12.084Z,3.60
2018-05-08T10:25:12.073Z,3.60
2018-05-08T10:26:12.064Z,3.30
2018-05-08T10:27:12.054Z,3.70
2018-05-08T10:28:12.046Z,3.30
2018-05-08T10:29:12.035Z,3.00
2018-05-08T10:30:12.027Z,3.30
2018-05-08T10:31:12.020Z,3.80
2018-05-08T10:32:12.006Z,3.80
2018-05-08T10:33:11.996Z,3.50
2018-05-08T10:34:12.009Z,3.30
2018-05-08T10:35:11.978Z,3.20
2018-05-08T10:36:11.968Z,3.10
2018-05-08T10:37:11.958Z,3.10
2018-05-08T10:38:11.948Z,2.90
2018-05-08T10:39:11.938Z,3.20
2018-05-08T10:40:11.928Z,3.20
2018-05-08T10:41:11.920Z,2.90
2018-05-08T10:42:11.909Z,2.80
2018-05-08T10:43:11.898Z,2.90
2018-05-08T10:44:11.896Z,2.90
2018-05-08T10:45:11.881Z,3.20
2018-05-08T10:46:11.870Z,3.10
2018-05-08T10:47:11.860Z,3.30
2018-05-08T10:48:11.855Z,3.70
2018-05-08T10:49:11.845Z,3.10
2018-05-08T10:50:11.832Z,3.30
2018-05-08T10:51:11.823Z,3.10
2018-05-08T10:52:11.815Z,3.30
2018-05-08T10:53:11.807Z,3.20
2018-05-08T10:54:11.794Z,2.80
2018-05-08T10:55:11.785Z,2.80
2018-05-08T10:56:11.781Z,3.00
2018-05-08T10:57:11.766Z,2.90
2018-05-08T10:58:11.758Z,4.40
2018-05-08T10:59:11.748Z,3.60
2018-05-08T11:00:11.739Z,3.10
2018-05-08T11:01:11.740Z,3.70
2018-05-08T11:02:11.722Z,2.90
2018-05-08T11:03:11.712Z,3.00
2018-05-08T11:04:11.705Z,3.20
2018-05-08T11:05:11.693Z,2.90
2018-05-08T11:06:11.685Z,3.70
2018-05-08T11:07:11.681Z,2.90
2018-05-08T11:08:11.678Z,2.60
2018-05-08T11:09:11.657Z,3.80
2018-05-08T11:10:11.648Z,3.70
2018-05-08T11:11:11.648Z,3.70
2018-05-08T11:12:11.630Z,2.70
2018-05-08T11:13:11.622Z,3.10
2018-05-08T11:14:11.610Z,3.10
2018-05-08T11:15:11.602Z,2.60
2018-05-08T11:16:11.592Z,5.20
2018-05-08T11:17:11.585Z,3.80
2018-05-08T11:18:11.574Z,4.10
2018-05-08T11:19:11.569Z,3.20
2018-05-08T11:20:11.557Z,2.70
2018-05-08T11:21:11.547Z,3.00
2018-05-08T11:22:11.538Z,3.10
2018-05-08T11:23:11.597Z,2.70
2018-05-08T11:24:11.541Z,3.20
2018-05-08T11:25:11.511Z,3.20
2018-05-08T11:26:11.502Z,3.20
2018-05-08T11:27:11.495Z,3.10
2018-05-08T11:28:11.486Z,3.50
2018-05-08T11:29:11.474Z,3.00
2018-05-08T11:30:11.465Z,3.20
2018-05-08T11:31:11.458Z,3.10
2018-05-08T11:32:11.450Z,3.30
2018-05-08T11:33:11.475Z,2.70
2018-05-08T11:34:11.429Z,3.00
2018-05-08T11:35:11.420Z,3.50
2018-05-08T11:36:11.414Z,3.60
2018-05-08T11:37:11.412Z,3.90
2018-05-08T11:38:11.393Z,2.80
2018-05-08T11:39:11.462Z,3.20
2018-05-08T11:40:11.383Z,3.40
2018-05-08T11:41:11.364Z,3.10
2018-05-08T11:42:11.359Z,3.50
2018-05-08T11:43:11.349Z,3.00
2018-05-08T11:44:11.347Z,3.80
2018-05-08T11:45:11.329Z,3.70
2018-05-08T11:46:11.324Z,3.10
2018-05-08T11:47:11.319Z,2.80
2018-05-08T11:48:11.306Z,2.70
2018-05-08T11:49:11.293Z,3.10
2018-05-08T11:50:11.289Z,3.00
2018-05-08T11:51:11.277Z,3.10
2018-05-08T11:52:11.267Z,3.80
2018-05-08T11:53:11.257Z,3.20
2018-05-08T11:54:11.249Z,2.90
2018-05-08T11:55:11.247Z,2.50
2018-05-08T11:56:11.234Z,3.00
2018-05-08T11:57:11.222Z,3.60
2018-05-08T11:58:11.270Z,3.40
2018-05-08T11:59:11.204Z,5.80
2018-05-08T12:00:11.206Z,4.80
2018-05-08T12:01:11.187Z,3.40
2018-05-08T12:02:11.176Z,3.30
2018-05-08T12:03:11.168Z,3.30
2018-05-08T12:04:11.166Z,3.70
2018-05-08T12:05:11.150Z,3.80
2018-05-08T12:06:11.141Z,3.50
2018-05-08T12:07:11.136Z,3.70
2018-05-08T12:08:11.124Z,2.80
2018-05-08T12:09:11.151Z,3.30
2018-05-08T12:10:11.116Z,3.00
2018-05-08T12:11:11.097Z,3.50
2018-05-08T12:12:11.096Z,3.70
2018-05-08T12:13:11.080Z,3.30
2018-05-08T12:14:11.071Z,2.60
2018-05-08T12:15:11.062Z,2.90
2018-05-08T12:16:11.056Z,3.10
2018-05-08T12:17:11.043Z,3.30
2018-05-08T12:18:11.036Z,2.90
2018-05-08T12:19:11.029Z,3.70
2018-05-08T12:20:11.068Z,3.00
2018-05-08T12:21:11.008Z,3.10
2018-05-08T12:22:11.001Z,3.30
2018-05-08T12:23:10.993Z,2.90
2018-05-08T12:24:10.982Z,3.30
2018-05-08T12:25:10.973Z,3.10
2018-05-08T12:26:10.964Z,3.50
2018-05-08T12:27:10.955Z,2.80
2018-05-08T12:28:10.947Z,3.40
2018-05-08T12:29:10.940Z,3.00
2018-05-08T12:30:10.935Z,3.00
2018-05-08T12:31:10.941Z,2.80
2018-05-08T12:32:10.927Z,2.60
2018-05-08T12:33:10.910Z,3.00
2018-05-08T12:34:10.894Z,2.80
2018-05-08T12:35:10.888Z,2.90
2018-05-08T12:36:10.994Z,2.90
2018-05-08T12:37:10.868Z,2.90
2018-05-08T12:38:10.863Z,3.10
2018-05-08T12:39:10.854Z,3.50
2018-05-08T12:40:10.845Z,3.10
2018-05-08T12:41:10.834Z,2.70
2018-05-08T12:42:10.894Z,2.60
2018-05-08T12:43:10.818Z,2.70
2018-05-08T12:44:10.810Z,2.60
2018-05-08T12:45:10.800Z,2.90
2018-05-08T12:46:10.807Z,2.60
2018-05-08T12:47:10.782Z,2.70
2018-05-08T12:48:10.773Z,2.60
2018-05-08T12:49:10.785Z,2.70
2018-05-08T12:50:10.762Z,2.40
2018-05-08T12:51:10.746Z,2.50
2018-05-08T12:52:10.738Z,2.60
2018-05-08T12:53:10.743Z,2.80
2018-05-08T12:54:10.720Z,2.70
2018-05-08T12:55:10.712Z,2.40
2018-05-08T12:56:10.761Z,2.30
2018-05-08T12:57:10.701Z,2.60
2018-05-08T12:58:10.685Z,2.80
2018-05-08T12:59:10.682Z,2.40
2018-05-08T13:00:10.672Z,2.70
2018-05-08T13:01:10.662Z,2.80
2018-05-08T13:02:10.651Z,2.80
2018-05-08T13:03:10.641Z,2.70
2018-05-08T13:04:10.633Z,2.90
2018-05-08T13:05:10.629Z,2.70
2018-05-08T13:06:10.611Z,2.90
2018-05-08T13:07:10.606Z,2.50
2018-05-08T13:08:10.593Z,2.60
2018-05-08T13:09:10.590Z,2.50
2018-05-08T13:10:10.574Z,3.20
2018-05-08T13:11:10.564Z,2.20
2018-05-08T13:12:10.557Z,2.30
2018-05-08T13:13:10.546Z,2.70
2018-05-08T13:14:10.537Z,2.40
2018-05-08T13:15:10.526Z,2.50
2018-05-08T13:16:10.517Z,2.70
2018-05-08T13:17:10.512Z,2.30
2018-05-08T13:18:10.554Z,2.50